sensor_id;sensor_type;location;lat;lon;timestamp;temperature;humidity
52513;DHT22;38422;53.172;6.974;2023-10-09T00:01:07;14.70;99.90
52513;DHT22;38422;53.172;6.974;2023-10-09T00:03:46;14.70;99.90
52513;DHT22;38422;53.172;6.974;2023-10-09T00:06:17;14.70;99.90
52513;DHT22;38422;53.172;6.974;2023-10-09T00:08:48;14.70;99.90
52513;DHT22;38422;53.172;6.974;2023-10-09T00:11:20;14.60;99.90
52513;DHT22;38422;53.172;6.974;2023-10-09T00:13:48;14.60;99.90
52513;DHT22;38422;53.172;6.974;2023-10-09T00:16:19;14.60;99.90
52513;DHT22;38422;53.172;6.974;2023-10-09T00:19:05;14.60;99.90
52513;DHT22;38422;53.172;6.974;2023-10-09T00:21:48;14.60;99.90
52513;DHT22;38422;53.172;6.974;2023-10-09T00:24:15;14.60;99.90
52513;DHT22;38422;53.172;6.974;2023-10-09T00:26:53;14.70;99.90
52513;DHT22;38422;53.172;6.974;2023-10-09T00:29:28;14.70;99.90
52513;DHT22;38422;53.172;6.974;2023-10-09T00:32:00;14.60;99.90
52513;DHT22;38422;53.172;6.974;2023-10-09T00:34:31;14.70;99.90
52513;DHT22;38422;53.172;6.974;2023-10-09T00:37:06;14.70;99.90
52513;DHT22;38422;53.172;6.974;2023-10-09T00:39:36;14.70;99.90
52513;DHT22;38422;53.172;6.974;2023-10-09T00:42:02;14.70;99.90
52513;DHT22;38422;53.172;6.974;2023-10-09T00:44:31;14.70;99.90
52513;DHT22;38422;53.172;6.974;2023-10-09T00:47:13;14.70;99.90
52513;DHT22;38422;53.172;6.974;2023-10-09T00:49:54;14.70;99.90
52513;DHT22;38422;53.172;6.974;2023-10-09T00:52:31;14.60;99.90
52513;DHT22;38422;53.172;6.974;2023-10-09T00:55:02;14.60;99.90
52513;DHT22;38422;53.172;6.974;2023-10-09T00:57:55;14.60;99.90
52513;DHT22;38422;53.172;6.974;2023-10-09T01:00:33;14.60;99.90
52513;DHT22;38422;53.172;6.974;2023-10-09T01:03:20;14.50;99.90
52513;DHT22;38422;53.172;6.974;2023-10-09T01:05:57;14.50;99.90
52513;DHT22;38422;53.172;6.974;2023-10-09T01:08:39;14.60;99.90
52513;DHT22;38422;53.172;6.974;2023-10-09T01:11:10;14.50;99.90
52513;DHT22;38422;53.172;6.974;2023-10-09T01:13:46;14.50;99.90
52513;DHT22;38422;53.172;6.974;2023-10-09T01:16:12;14.50;99.90
52513;DHT22;38422;53.172;6.974;2023-10-09T01:18:42;14.40;99.90
52513;DHT22;38422;53.172;6.974;2023-10-09T01:21:09;14.40;99.90
52513;DHT22;38422;53.172;6.974;2023-10-09T01:23:46;14.40;99.90
52513;DHT22;38422;53.172;6.974;2023-10-09T01:26:27;14.40;99.90
52513;DHT22;38422;53.172;6.974;2023-10-09T01:28:58;14.40;99.90
52513;DHT22;38422;53.172;6.974;2023-10-09T01:31:26;14.40;99.90
52513;DHT22;38422;53.172;6.974;2023-10-09T01:33:52;14.40;99.90
52513;DHT22;38422;53.172;6.974;2023-10-09T01:36:28;14.40;99.90
52513;DHT22;38422;53.172;6.974;2023-10-09T01:39:01;14.40;99.90
52513;DHT22;38422;53.172;6.974;2023-10-09T01:41:48;14.40;99.90
52513;DHT22;38422;53.172;6.974;2023-10-09T01:44:15;14.40;99.90
52513;DHT22;38422;53.172;6.974;2023-10-09T01:46:42;14.50;99.90
52513;DHT22;38422;53.172;6.974;2023-10-09T01:49:12;14.50;99.90
52513;DHT22;38422;53.172;6.974;2023-10-09T01:51:46;14.50;99.90
52513;DHT22;38422;53.172;6.974;2023-10-09T01:54:12;14.50;99.90
52513;DHT22;38422;53.172;6.974;2023-10-09T01:56:53;14.50;99.90
52513;DHT22;38422;53.172;6.974;2023-10-09T01:59:21;14.50;99.90
52513;DHT22;38422;53.172;6.974;2023-10-09T02:01:47;14.60;99.90
52513;DHT22;38422;53.172;6.974;2023-10-09T02:04:13;14.60;99.90
52513;DHT22;38422;53.172;6.974;2023-10-09T02:06:40;14.60;99.90
52513;DHT22;38422;53.172;6.974;2023-10-09T02:09:05;14.60;99.90
52513;DHT22;38422;53.172;6.974;2023-10-09T02:11:32;14.60;99.90
52513;DHT22;38422;53.172;6.974;2023-10-09T02:14:05;14.60;99.90
52513;DHT22;38422;53.172;6.974;2023-10-09T02:16:49;14.60;99.90
52513;DHT22;38422;53.172;6.974;2023-10-09T02:19:33;14.60;99.90
52513;DHT22;38422;53.172;6.974;2023-10-09T02:22:05;14.50;99.90
52513;DHT22;38422;53.172;6.974;2023-10-09T02:24:42;14.50;99.90
52513;DHT22;38422;53.172;6.974;2023-10-09T02:27:15;14.50;99.90
52513;DHT22;38422;53.172;6.974;2023-10-09T02:30:02;14.50;99.90
52513;DHT22;38422;53.172;6.974;2023-10-09T02:32:35;14.50;99.90
52513;DHT22;38422;53.172;6.974;2023-10-09T02:35:04;14.50;99.90
52513;DHT22;38422;53.172;6.974;2023-10-09T02:37:36;14.50;99.90
52513;DHT22;38422;53.172;6.974;2023-10-09T02:40:04;14.50;99.90
52513;DHT22;38422;53.172;6.974;2023-10-09T02:42:34;14.50;99.90
52513;DHT22;38422;53.172;6.974;2023-10-09T02:45:00;14.40;99.90
52513;DHT22;38422;53.172;6.974;2023-10-09T02:47:26;14.40;99.90
52513;DHT22;38422;53.172;6.974;2023-10-09T02:49:57;14.40;99.90
52513;DHT22;38422;53.172;6.974;2023-10-09T02:52:34;14.40;99.90
52513;DHT22;38422;53.172;6.974;2023-10-09T02:55:06;14.30;99.90
52513;DHT22;38422;53.172;6.974;2023-10-09T02:57:37;14.30;99.90
52513;DHT22;38422;53.172;6.974;2023-10-09T03:00:05;14.20;99.90
52513;DHT22;38422;53.172;6.974;2023-10-09T03:02:35;14.20;99.90
52513;DHT22;38422;53.172;6.974;2023-10-09T03:05:06;14.20;99.90
52513;DHT22;38422;53.172;6.974;2023-10-09T03:07:37;14.20;99.90
52513;DHT22;38422;53.172;6.974;2023-10-09T03:10:06;14.20;99.90
52513;DHT22;38422;53.172;6.974;2023-10-09T03:12:35;14.20;99.90
52513;DHT22;38422;53.172;6.974;2023-10-09T03:15:01;14.20;99.90
52513;DHT22;38422;53.172;6.974;2023-10-09T03:17:28;14.20;99.90
52513;DHT22;38422;53.172;6.974;2023-10-09T03:19:54;14.20;99.90
52513;DHT22;38422;53.172;6.974;2023-10-09T03:22:20;14.20;99.90
52513;DHT22;38422;53.172;6.974;2023-10-09T03:24:46;14.20;99.90
52513;DHT22;38422;53.172;6.974;2023-10-09T03:27:14;14.20;99.90
52513;DHT22;38422;53.172;6.974;2023-10-09T03:29:41;14.20;99.90
52513;DHT22;38422;53.172;6.974;2023-10-09T03:32:07;14.20;99.90
52513;DHT22;38422;53.172;6.974;2023-10-09T03:34:34;14.20;99.90
52513;DHT22;38422;53.172;6.974;2023-10-09T03:37:00;14.30;99.90
52513;DHT22;38422;53.172;6.974;2023-10-09T03:39:36;14.30;99.90
52513;DHT22;38422;53.172;6.974;2023-10-09T03:42:06;14.30;99.90
52513;DHT22;38422;53.172;6.974;2023-10-09T03:44:38;14.30;99.90
52513;DHT22;38422;53.172;6.974;2023-10-09T03:47:07;14.40;99.90
52513;DHT22;38422;53.172;6.974;2023-10-09T03:49:36;14.40;99.90
52513;DHT22;38422;53.172;6.974;2023-10-09T03:52:05;14.40;99.90
52513;DHT22;38422;53.172;6.974;2023-10-09T03:54:32;14.40;99.90
52513;DHT22;38422;53.172;6.974;2023-10-09T03:57:01;14.40;99.90
52513;DHT22;38422;53.172;6.974;2023-10-09T03:59:27;14.40;99.90
52513;DHT22;38422;53.172;6.974;2023-10-09T04:01:57;14.40;99.90
52513;DHT22;38422;53.172;6.974;2023-10-09T04:04:24;14.40;99.90
52513;DHT22;38422;53.172;6.974;2023-10-09T04:06:50;14.40;99.90
52513;DHT22;38422;53.172;6.974;2023-10-09T04:09:19;14.40;99.90
52513;DHT22;38422;53.172;6.974;2023-10-09T04:11:54;14.40;99.90
52513;DHT22;38422;53.172;6.974;2023-10-09T04:14:39;14.40;99.90
52513;DHT22;38422;53.172;6.974;2023-10-09T04:17:30;14.50;99.90
52513;DHT22;38422;53.172;6.974;2023-10-09T04:20:00;14.50;99.90
52513;DHT22;38422;53.172;6.974;2023-10-09T04:22:45;14.50;99.90
52513;DHT22;38422;53.172;6.974;2023-10-09T04:25:18;14.60;99.90
52513;DHT22;38422;53.172;6.974;2023-10-09T04:27:55;14.60;99.90
52513;DHT22;38422;53.172;6.974;2023-10-09T04:30:45;14.60;99.90
52513;DHT22;38422;53.172;6.974;2023-10-09T04:33:21;14.60;99.90
52513;DHT22;38422;53.172;6.974;2023-10-09T04:36:06;14.60;99.90
52513;DHT22;38422;53.172;6.974;2023-10-09T04:38:48;14.70;99.90
52513;DHT22;38422;53.172;6.974;2023-10-09T04:41:32;14.70;99.90
52513;DHT22;38422;53.172;6.974;2023-10-09T04:44:07;14.70;99.90
52513;DHT22;38422;53.172;6.974;2023-10-09T04:46:51;14.70;99.90
52513;DHT22;38422;53.172;6.974;2023-10-09T04:49:37;14.70;99.90
52513;DHT22;38422;53.172;6.974;2023-10-09T04:52:22;14.80;99.90
52513;DHT22;38422;53.172;6.974;2023-10-09T04:55:16;14.80;99.90
52513;DHT22;38422;53.172;6.974;2023-10-09T04:57:46;14.80;99.90
52513;DHT22;38422;53.172;6.974;2023-10-09T05:00:25;14.80;99.90
52513;DHT22;38422;53.172;6.974;2023-10-09T05:03:02;14.80;99.90
52513;DHT22;38422;53.172;6.974;2023-10-09T05:05:46;14.80;99.90
52513;DHT22;38422;53.172;6.974;2023-10-09T05:08:17;14.80;99.90
52513;DHT22;38422;53.172;6.974;2023-10-09T05:11:03;14.80;99.90
52513;DHT22;38422;53.172;6.974;2023-10-09T05:13:30;14.80;99.90
52513;DHT22;38422;53.172;6.974;2023-10-09T05:16:09;14.80;99.90
52513;DHT22;38422;53.172;6.974;2023-10-09T05:18:44;14.90;99.90
52513;DHT22;38422;53.172;6.974;2023-10-09T05:21:11;14.90;99.90
52513;DHT22;38422;53.172;6.974;2023-10-09T05:23:55;14.90;99.90
52513;DHT22;38422;53.172;6.974;2023-10-09T05:26:39;14.90;99.90
52513;DHT22;38422;53.172;6.974;2023-10-09T05:29:12;15.00;99.90
52513;DHT22;38422;53.172;6.974;2023-10-09T05:31:56;15.00;99.90
52513;DHT22;38422;53.172;6.974;2023-10-09T05:34:42;15.00;99.90
52513;DHT22;38422;53.172;6.974;2023-10-09T05:37:30;15.00;99.90
52513;DHT22;38422;53.172;6.974;2023-10-09T05:40:03;15.00;99.90
52513;DHT22;38422;53.172;6.974;2023-10-09T05:42:41;15.00;99.90
52513;DHT22;38422;53.172;6.974;2023-10-09T05:45:16;15.10;99.90
52513;DHT22;38422;53.172;6.974;2023-10-09T05:47:52;15.00;99.90
52513;DHT22;38422;53.172;6.974;2023-10-09T05:50:36;15.10;99.90
52513;DHT22;38422;53.172;6.974;2023-10-09T05:53:31;15.10;99.90
52513;DHT22;38422;53.172;6.974;2023-10-09T05:56:09;15.10;99.90
52513;DHT22;38422;53.172;6.974;2023-10-09T05:58:54;15.10;99.90
52513;DHT22;38422;53.172;6.974;2023-10-09T06:01:45;15.10;99.90
52513;DHT22;38422;53.172;6.974;2023-10-09T06:04:22;15.20;99.90
52513;DHT22;38422;53.172;6.974;2023-10-09T06:07:00;15.20;99.90
52513;DHT22;38422;53.172;6.974;2023-10-09T06:09:36;15.20;99.90
52513;DHT22;38422;53.172;6.974;2023-10-09T06:12:21;15.20;99.90
52513;DHT22;38422;53.172;6.974;2023-10-09T06:15:15;15.20;99.90
52513;DHT22;38422;53.172;6.974;2023-10-09T06:17:59;15.30;99.90
52513;DHT22;38422;53.172;6.974;2023-10-09T06:20:47;15.30;99.90
52513;DHT22;38422;53.172;6.974;2023-10-09T06:23:34;15.30;99.90
52513;DHT22;38422;53.172;6.974;2023-10-09T06:26:18;15.30;99.90
52513;DHT22;38422;53.172;6.974;2023-10-09T06:28:51;15.30;99.90
52513;DHT22;38422;53.172;6.974;2023-10-09T06:31:39;15.30;99.90
52513;DHT22;38422;53.172;6.974;2023-10-09T06:34:26;15.30;99.90
52513;DHT22;38422;53.172;6.974;2023-10-09T06:37:01;15.40;99.90
52513;DHT22;38422;53.172;6.974;2023-10-09T06:39:55;15.40;99.90
52513;DHT22;38422;53.172;6.974;2023-10-09T06:42:30;15.40;99.90
52513;DHT22;38422;53.172;6.974;2023-10-09T06:45:01;15.40;99.90
52513;DHT22;38422;53.172;6.974;2023-10-09T06:47:31;15.50;99.90
52513;DHT22;38422;53.172;6.974;2023-10-09T06:50:08;15.40;99.90
52513;DHT22;38422;53.172;6.974;2023-10-09T06:52:45;15.50;99.90
52513;DHT22;38422;53.172;6.974;2023-10-09T06:55:27;15.50;99.90
52513;DHT22;38422;53.172;6.974;2023-10-09T06:58:14;15.50;99.90
52513;DHT22;38422;53.172;6.974;2023-10-09T07:00:48;15.50;99.90
52513;DHT22;38422;53.172;6.974;2023-10-09T07:03:20;15.50;99.90
52513;DHT22;38422;53.172;6.974;2023-10-09T07:06:06;15.50;99.90
52513;DHT22;38422;53.172;6.974;2023-10-09T07:08:36;15.50;99.90
52513;DHT22;38422;53.172;6.974;2023-10-09T07:11:10;15.60;99.90
52513;DHT22;38422;53.172;6.974;2023-10-09T07:14:15;15.60;99.90
52513;DHT22;38422;53.172;6.974;2023-10-09T07:17:01;15.60;99.90
52513;DHT22;38422;53.172;6.974;2023-10-09T07:19:31;15.60;99.90
52513;DHT22;38422;53.172;6.974;2023-10-09T07:22:03;15.70;99.90
52513;DHT22;38422;53.172;6.974;2023-10-09T07:24:32;15.70;99.90
52513;DHT22;38422;53.172;6.974;2023-10-09T07:27:09;15.70;99.90
52513;DHT22;38422;53.172;6.974;2023-10-09T07:29:38;15.70;99.90
52513;DHT22;38422;53.172;6.974;2023-10-09T07:32:16;15.70;99.90
52513;DHT22;38422;53.172;6.974;2023-10-09T07:34:49;15.70;99.90
52513;DHT22;38422;53.172;6.974;2023-10-09T07:37:26;15.70;99.90
52513;DHT22;38422;53.172;6.974;2023-10-09T07:39:58;15.80;99.90
52513;DHT22;38422;53.172;6.974;2023-10-09T07:42:27;15.80;99.90
52513;DHT22;38422;53.172;6.974;2023-10-09T07:45:10;15.80;99.90
52513;DHT22;38422;53.172;6.974;2023-10-09T07:47:59;15.80;99.90
52513;DHT22;38422;53.172;6.974;2023-10-09T07:50:25;15.80;99.90
52513;DHT22;38422;53.172;6.974;2023-10-09T07:53:04;15.80;99.90
52513;DHT22;38422;53.172;6.974;2023-10-09T07:55:55;15.90;99.90
52513;DHT22;38422;53.172;6.974;2023-10-09T07:58:25;15.90;99.90
52513;DHT22;38422;53.172;6.974;2023-10-09T08:00:55;15.90;99.90
52513;DHT22;38422;53.172;6.974;2023-10-09T08:03:34;15.90;99.90
52513;DHT22;38422;53.172;6.974;2023-10-09T08:06:02;15.90;99.90
52513;DHT22;38422;53.172;6.974;2023-10-09T08:08:46;15.90;99.90
52513;DHT22;38422;53.172;6.974;2023-10-09T08:11:44;15.90;99.90
52513;DHT22;38422;53.172;6.974;2023-10-09T08:14:14;15.90;99.90
52513;DHT22;38422;53.172;6.974;2023-10-09T08:16:46;16.00;99.90
52513;DHT22;38422;53.172;6.974;2023-10-09T08:19:11;16.00;99.90
52513;DHT22;38422;53.172;6.974;2023-10-09T08:21:59;16.00;99.90
52513;DHT22;38422;53.172;6.974;2023-10-09T08:24:42;16.00;99.90
52513;DHT22;38422;53.172;6.974;2023-10-09T08:27:28;16.00;99.90
52513;DHT22;38422;53.172;6.974;2023-10-09T08:32:47;16.00;99.90
52513;DHT22;38422;53.172;6.974;2023-10-09T08:35:36;16.00;99.90
52513;DHT22;38422;53.172;6.974;2023-10-09T08:38:15;16.10;99.90
52513;DHT22;38422;53.172;6.974;2023-10-09T08:40:48;16.10;99.90
52513;DHT22;38422;53.172;6.974;2023-10-09T08:43:19;16.10;99.90
52513;DHT22;38422;53.172;6.974;2023-10-09T08:45:50;16.10;99.90
52513;DHT22;38422;53.172;6.974;2023-10-09T08:48:19;16.10;99.90
52513;DHT22;38422;53.172;6.974;2023-10-09T08:50:48;16.10;99.90
52513;DHT22;38422;53.172;6.974;2023-10-09T08:53:16;16.20;99.90
52513;DHT22;38422;53.172;6.974;2023-10-09T08:55:42;16.20;99.90
52513;DHT22;38422;53.172;6.974;2023-10-09T08:58:09;16.20;99.90
52513;DHT22;38422;53.172;6.974;2023-10-09T09:00:46;16.30;99.90
52513;DHT22;38422;53.172;6.974;2023-10-09T09:03:14;16.30;99.90
52513;DHT22;38422;53.172;6.974;2023-10-09T09:05:45;16.30;99.90
52513;DHT22;38422;53.172;6.974;2023-10-09T09:08:22;16.30;99.90
52513;DHT22;38422;53.172;6.974;2023-10-09T09:10:59;16.30;99.90
52513;DHT22;38422;53.172;6.974;2023-10-09T09:13:44;16.30;99.90
52513;DHT22;38422;53.172;6.974;2023-10-09T09:16:25;16.30;99.90
52513;DHT22;38422;53.172;6.974;2023-10-09T09:19:04;16.30;99.90
52513;DHT22;38422;53.172;6.974;2023-10-09T09:21:48;16.30;99.90
52513;DHT22;38422;53.172;6.974;2023-10-09T09:24:14;16.30;99.90
52513;DHT22;38422;53.172;6.974;2023-10-09T09:26:40;16.40;99.90
52513;DHT22;38422;53.172;6.974;2023-10-09T09:29:15;16.40;99.90
52513;DHT22;38422;53.172;6.974;2023-10-09T09:31:56;16.40;99.90
52513;DHT22;38422;53.172;6.974;2023-10-09T09:34:52;16.40;99.90
52513;DHT22;38422;53.172;6.974;2023-10-09T09:37:30;16.50;99.90
52513;DHT22;38422;53.172;6.974;2023-10-09T09:40:01;16.50;99.90
52513;DHT22;38422;53.172;6.974;2023-10-09T09:42:30;16.50;99.90
52513;DHT22;38422;53.172;6.974;2023-10-09T09:45:01;16.60;99.90
52513;DHT22;38422;53.172;6.974;2023-10-09T09:47:27;16.60;99.90
52513;DHT22;38422;53.172;6.974;2023-10-09T09:49:56;16.70;99.90
52513;DHT22;38422;53.172;6.974;2023-10-09T09:52:37;16.70;99.90
52513;DHT22;38422;53.172;6.974;2023-10-09T09:55:08;16.80;99.90
52513;DHT22;38422;53.172;6.974;2023-10-09T09:57:44;16.90;99.90
52513;DHT22;38422;53.172;6.974;2023-10-09T10:00:19;16.90;99.90
52513;DHT22;38422;53.172;6.974;2023-10-09T10:03:33;16.90;99.90
52513;DHT22;38422;53.172;6.974;2023-10-09T10:06:00;16.90;99.90
52513;DHT22;38422;53.172;6.974;2023-10-09T10:08:35;16.90;99.90
52513;DHT22;38422;53.172;6.974;2023-10-09T10:11:05;16.90;99.90
52513;DHT22;38422;53.172;6.974;2023-10-09T10:16:12;16.90;99.90
52513;DHT22;38422;53.172;6.974;2023-10-09T10:18:58;16.90;99.90
52513;DHT22;38422;53.172;6.974;2023-10-09T10:21:36;16.90;99.90
52513;DHT22;38422;53.172;6.974;2023-10-09T10:27:26;16.80;99.90
52513;DHT22;38422;53.172;6.974;2023-10-09T10:35:17;16.70;99.90
52513;DHT22;38422;53.172;6.974;2023-10-09T10:37:46;16.70;99.90
52513;DHT22;38422;53.172;6.974;2023-10-09T10:40:29;16.70;99.90
52513;DHT22;38422;53.172;6.974;2023-10-09T10:43:04;16.70;99.90
52513;DHT22;38422;53.172;6.974;2023-10-09T10:45:48;16.70;99.90
52513;DHT22;38422;53.172;6.974;2023-10-09T10:48:14;16.70;99.90
52513;DHT22;38422;53.172;6.974;2023-10-09T10:51:04;16.80;99.90
52513;DHT22;38422;53.172;6.974;2023-10-09T10:53:30;16.80;99.90
52513;DHT22;38422;53.172;6.974;2023-10-09T10:56:13;16.80;99.90
52513;DHT22;38422;53.172;6.974;2023-10-09T10:58:43;16.90;99.90
52513;DHT22;38422;53.172;6.974;2023-10-09T11:01:37;16.90;99.90
52513;DHT22;38422;53.172;6.974;2023-10-09T11:04:29;17.00;99.90
52513;DHT22;38422;53.172;6.974;2023-10-09T11:06:55;17.00;99.90
52513;DHT22;38422;53.172;6.974;2023-10-09T11:09:26;17.00;99.90
52513;DHT22;38422;53.172;6.974;2023-10-09T11:12:05;17.00;99.90
52513;DHT22;38422;53.172;6.974;2023-10-09T11:14:50;17.00;99.90
52513;DHT22;38422;53.172;6.974;2023-10-09T11:17:35;17.00;99.90
52513;DHT22;38422;53.172;6.974;2023-10-09T11:20:05;16.90;99.90
52513;DHT22;38422;53.172;6.974;2023-10-09T11:22:57;16.90;99.90
52513;DHT22;38422;53.172;6.974;2023-10-09T11:25:41;16.90;99.90
52513;DHT22;38422;53.172;6.974;2023-10-09T11:28:19;16.90;99.90
52513;DHT22;38422;53.172;6.974;2023-10-09T11:31:11;17.00;99.90
52513;DHT22;38422;53.172;6.974;2023-10-09T11:33:48;17.00;99.90
52513;DHT22;38422;53.172;6.974;2023-10-09T11:36:18;17.10;99.90
52513;DHT22;38422;53.172;6.974;2023-10-09T11:38:47;17.10;99.90
52513;DHT22;38422;53.172;6.974;2023-10-09T11:41:19;17.30;99.90
52513;DHT22;38422;53.172;6.974;2023-10-09T11:43:52;17.40;99.90
52513;DHT22;38422;53.172;6.974;2023-10-09T11:46:20;17.50;99.90
52513;DHT22;38422;53.172;6.974;2023-10-09T11:49:14;17.60;99.90
52513;DHT22;38422;53.172;6.974;2023-10-09T11:51:46;17.70;99.90
52513;DHT22;38422;53.172;6.974;2023-10-09T11:54:35;17.70;99.90
52513;DHT22;38422;53.172;6.974;2023-10-09T11:57:02;17.70;99.90
52513;DHT22;38422;53.172;6.974;2023-10-09T11:59:31;17.80;99.90
52513;DHT22;38422;53.172;6.974;2023-10-09T12:02:09;17.90;99.90
52513;DHT22;38422;53.172;6.974;2023-10-09T12:04:39;17.90;99.90
52513;DHT22;38422;53.172;6.974;2023-10-09T12:07:08;18.00;99.90
52513;DHT22;38422;53.172;6.974;2023-10-09T12:09:38;18.00;99.90
52513;DHT22;38422;53.172;6.974;2023-10-09T12:12:06;18.10;99.90
52513;DHT22;38422;53.172;6.974;2023-10-09T12:14:33;18.30;99.90
52513;DHT22;38422;53.172;6.974;2023-10-09T12:17:06;18.40;99.90
52513;DHT22;38422;53.172;6.974;2023-10-09T12:19:37;18.40;99.90
52513;DHT22;38422;53.172;6.974;2023-10-09T12:22:05;18.40;99.90
52513;DHT22;38422;53.172;6.974;2023-10-09T12:24:32;18.30;99.90
52513;DHT22;38422;53.172;6.974;2023-10-09T12:26:59;18.20;99.90
52513;DHT22;38422;53.172;6.974;2023-10-09T12:29:25;18.10;99.90
52513;DHT22;38422;53.172;6.974;2023-10-09T12:31:56;18.00;99.90
52513;DHT22;38422;53.172;6.974;2023-10-09T12:34:28;18.00;99.90
52513;DHT22;38422;53.172;6.974;2023-10-09T12:36:57;17.90;99.90
52513;DHT22;38422;53.172;6.974;2023-10-09T12:39:26;17.80;99.90
52513;DHT22;38422;53.172;6.974;2023-10-09T12:41:59;17.80;99.90
52513;DHT22;38422;53.172;6.974;2023-10-09T12:44:35;17.70;99.90
52513;DHT22;38422;53.172;6.974;2023-10-09T12:47:08;17.60;99.90
52513;DHT22;38422;53.172;6.974;2023-10-09T12:49:37;17.50;99.90
52513;DHT22;38422;53.172;6.974;2023-10-09T12:52:07;17.50;99.90
52513;DHT22;38422;53.172;6.974;2023-10-09T12:54:42;17.40;99.90
52513;DHT22;38422;53.172;6.974;2023-10-09T12:57:07;17.40;99.90
52513;DHT22;38422;53.172;6.974;2023-10-09T12:59:42;17.30;99.90
52513;DHT22;38422;53.172;6.974;2023-10-09T13:02:14;17.30;99.90
52513;DHT22;38422;53.172;6.974;2023-10-09T13:04:54;17.30;99.90
52513;DHT22;38422;53.172;6.974;2023-10-09T13:07:21;17.20;99.90
52513;DHT22;38422;53.172;6.974;2023-10-09T13:09:48;17.20;99.90
52513;DHT22;38422;53.172;6.974;2023-10-09T13:12:33;17.10;99.90
52513;DHT22;38422;53.172;6.974;2023-10-09T13:14:58;17.10;99.90
52513;DHT22;38422;53.172;6.974;2023-10-09T13:17:27;17.00;99.90
52513;DHT22;38422;53.172;6.974;2023-10-09T13:19:53;17.00;99.90
52513;DHT22;38422;53.172;6.974;2023-10-09T13:22:20;17.00;99.90
52513;DHT22;38422;53.172;6.974;2023-10-09T13:24:48;17.00;99.90
52513;DHT22;38422;53.172;6.974;2023-10-09T13:27:15;17.00;99.90
52513;DHT22;38422;53.172;6.974;2023-10-09T13:29:47;17.00;99.90
52513;DHT22;38422;53.172;6.974;2023-10-09T13:32:13;17.00;99.90
52513;DHT22;38422;53.172;6.974;2023-10-09T13:34:40;17.00;99.90
52513;DHT22;38422;53.172;6.974;2023-10-09T13:37:14;17.00;99.90
52513;DHT22;38422;53.172;6.974;2023-10-09T13:39:45;17.00;99.90
52513;DHT22;38422;53.172;6.974;2023-10-09T13:42:19;17.00;99.90
52513;DHT22;38422;53.172;6.974;2023-10-09T13:44:44;17.00;99.90
52513;DHT22;38422;53.172;6.974;2023-10-09T13:47:14;17.00;99.90
52513;DHT22;38422;53.172;6.974;2023-10-09T13:49:47;17.00;99.90
52513;DHT22;38422;53.172;6.974;2023-10-09T13:52:17;17.00;99.90
52513;DHT22;38422;53.172;6.974;2023-10-09T13:54:47;17.00;99.90
52513;DHT22;38422;53.172;6.974;2023-10-09T13:57:15;17.00;99.90
52513;DHT22;38422;53.172;6.974;2023-10-09T13:59:41;17.00;99.90
52513;DHT22;38422;53.172;6.974;2023-10-09T14:02:17;17.00;99.90
52513;DHT22;38422;53.172;6.974;2023-10-09T14:04:43;17.00;99.90
52513;DHT22;38422;53.172;6.974;2023-10-09T14:07:10;17.00;99.90
52513;DHT22;38422;53.172;6.974;2023-10-09T14:09:35;17.00;99.90
52513;DHT22;38422;53.172;6.974;2023-10-09T14:12:24;17.00;99.90
52513;DHT22;38422;53.172;6.974;2023-10-09T14:14:55;17.00;99.90
52513;DHT22;38422;53.172;6.974;2023-10-09T14:17:22;17.00;99.90
52513;DHT22;38422;53.172;6.974;2023-10-09T14:19:54;17.00;99.90
52513;DHT22;38422;53.172;6.974;2023-10-09T14:22:23;17.00;99.90
52513;DHT22;38422;53.172;6.974;2023-10-09T14:24:55;17.00;99.90
52513;DHT22;38422;53.172;6.974;2023-10-09T14:27:25;17.00;99.90
52513;DHT22;38422;53.172;6.974;2023-10-09T14:29:54;17.00;99.90
52513;DHT22;38422;53.172;6.974;2023-10-09T14:32:26;17.00;99.90
52513;DHT22;38422;53.172;6.974;2023-10-09T14:34:59;17.00;99.90
52513;DHT22;38422;53.172;6.974;2023-10-09T14:37:28;17.10;99.90
52513;DHT22;38422;53.172;6.974;2023-10-09T14:39:55;17.10;99.90
52513;DHT22;38422;53.172;6.974;2023-10-09T14:42:21;17.10;99.90
52513;DHT22;38422;53.172;6.974;2023-10-09T14:44:49;17.10;99.90
52513;DHT22;38422;53.172;6.974;2023-10-09T14:47:16;17.20;99.90
52513;DHT22;38422;53.172;6.974;2023-10-09T14:49:47;17.20;99.90
52513;DHT22;38422;53.172;6.974;2023-10-09T14:52:16;17.30;99.90
52513;DHT22;38422;53.172;6.974;2023-10-09T14:54:45;17.30;99.90
52513;DHT22;38422;53.172;6.974;2023-10-09T14:57:12;17.30;99.90
52513;DHT22;38422;53.172;6.974;2023-10-09T14:59:39;17.40;99.90
52513;DHT22;38422;53.172;6.974;2023-10-09T15:02:05;17.50;99.90
52513;DHT22;38422;53.172;6.974;2023-10-09T15:04:32;17.50;99.90
52513;DHT22;38422;53.172;6.974;2023-10-09T15:07:01;17.50;99.90
52513;DHT22;38422;53.172;6.974;2023-10-09T15:09:27;17.60;99.90
52513;DHT22;38422;53.172;6.974;2023-10-09T15:11:56;17.60;99.90
52513;DHT22;38422;53.172;6.974;2023-10-09T15:14:23;17.50;99.90
52513;DHT22;38422;53.172;6.974;2023-10-09T15:16:49;17.50;99.90
52513;DHT22;38422;53.172;6.974;2023-10-09T15:19:16;17.40;99.90
52513;DHT22;38422;53.172;6.974;2023-10-09T15:21:42;17.40;99.90
52513;DHT22;38422;53.172;6.974;2023-10-09T15:24:12;17.40;99.90
52513;DHT22;38422;53.172;6.974;2023-10-09T15:26:46;17.40;99.90
52513;DHT22;38422;53.172;6.974;2023-10-09T15:29:21;17.40;99.90
52513;DHT22;38422;53.172;6.974;2023-10-09T15:32:01;17.40;99.90
52513;DHT22;38422;53.172;6.974;2023-10-09T15:34:36;17.40;99.90
52513;DHT22;38422;53.172;6.974;2023-10-09T15:37:02;17.40;99.90
52513;DHT22;38422;53.172;6.974;2023-10-09T15:39:29;17.40;99.90
52513;DHT22;38422;53.172;6.974;2023-10-09T15:41:57;17.30;99.90
52513;DHT22;38422;53.172;6.974;2023-10-09T15:44:23;17.30;99.90
52513;DHT22;38422;53.172;6.974;2023-10-09T15:46:50;17.30;99.90
52513;DHT22;38422;53.172;6.974;2023-10-09T15:49:16;17.30;99.90
52513;DHT22;38422;53.172;6.974;2023-10-09T15:51:42;17.30;99.90
52513;DHT22;38422;53.172;6.974;2023-10-09T15:54:09;17.30;99.90
52513;DHT22;38422;53.172;6.974;2023-10-09T15:56:37;17.20;99.90
52513;DHT22;38422;53.172;6.974;2023-10-09T15:59:07;17.20;99.90
52513;DHT22;38422;53.172;6.974;2023-10-09T16:01:33;17.20;99.90
52513;DHT22;38422;53.172;6.974;2023-10-09T16:04:01;17.20;99.90
52513;DHT22;38422;53.172;6.974;2023-10-09T16:06:26;17.20;99.90
52513;DHT22;38422;53.172;6.974;2023-10-09T16:08:56;17.20;99.90
52513;DHT22;38422;53.172;6.974;2023-10-09T16:11:22;17.20;99.90
52513;DHT22;38422;53.172;6.974;2023-10-09T16:13:50;17.10;99.90
52513;DHT22;38422;53.172;6.974;2023-10-09T16:16:24;17.10;99.90
52513;DHT22;38422;53.172;6.974;2023-10-09T16:18:50;17.00;99.90
52513;DHT22;38422;53.172;6.974;2023-10-09T16:21:17;17.00;99.90
52513;DHT22;38422;53.172;6.974;2023-10-09T16:23:42;16.90;99.90
52513;DHT22;38422;53.172;6.974;2023-10-09T16:26:08;16.90;99.90